Time;durP1;ratioP1;P1;durP2;ratioP2;P2;SDS_P1;SDS_P2;PMS_P1;PMS_P2;Temp;Humidity;BMP_temperature;BMP_pressure;BME280_temperature;BME280_humidity;BME280_pressure;Samples;Min_cycle;Max_cycle;Signal;HPM_P1;HPM_P2
2020/12/11 00:02:02;;;;;;;43.15;21.10;;;2.60;1.00;;;;;;5066083;28;20177;-52
2020/12/11 00:04:28;;;;;;;38.45;21.50;;;2.60;1.00;;;;;;5068410;28;20176;-54
2020/12/11 00:06:58;;;;;;;38.60;20.43;;;2.60;1.00;;;;;;5067366;28;20258;-54
2020/12/11 00:09:24;;;;;;;39.30;21.13;;;2.70;1.00;;;;;;5060872;28;20177;-53
2020/12/11 00:11:50;;;;;;;43.38;21.55;;;2.80;1.00;;;;;;5064627;28;20286;-56
2020/12/11 00:14:17;;;;;;;37.00;20.20;;;2.80;1.00;;;;;;5068473;28;20200;-53
2020/12/11 00:16:43;;;;;;;36.30;19.15;;;2.80;1.00;;;;;;5066773;28;20430;-52
2020/12/11 00:19:08;;;;;;;40.40;20.73;;;2.80;1.00;;;;;;5068250;28;20188;-54
2020/12/11 00:21:42;;;;;;;42.97;22.37;;;2.80;1.00;;;;;;5071275;28;20826;-56
2020/12/11 00:24:09;;;;;;;42.58;22.33;;;2.90;1.00;;;;;;5073655;28;20622;-52
2020/12/11 00:26:34;;;;;;;45.92;21.75;;;2.80;1.00;;;;;;5072692;28;20184;-56
2020/12/11 00:29:00;;;;;;;43.10;21.23;;;2.70;1.00;;;;;;5057917;28;20184;-52
2020/12/11 00:31:26;;;;;;;43.08;21.45;;;2.70;1.00;;;;;;5070346;28;20220;-53
2020/12/11 00:33:52;;;;;;;42.93;22.17;;;2.80;1.00;;;;;;5061535;28;20191;-54
2020/12/11 00:36:18;;;;;;;39.00;20.90;;;2.70;1.00;;;;;;5070977;28;20176;-53
2020/12/11 00:38:44;;;;;;;44.80;21.80;;;2.70;1.00;;;;;;5064031;28;20189;-52
2020/12/11 00:41:10;;;;;;;38.60;20.83;;;2.70;1.00;;;;;;5051709;28;20232;-56
2020/12/11 00:43:36;;;;;;;43.00;21.87;;;2.70;1.00;;;;;;5061312;28;20476;-51
2020/12/11 00:46:02;;;;;;;44.40;22.20;;;2.70;1.00;;;;;;5066333;28;20189;-52
2020/12/11 00:48:27;;;;;;;39.93;20.97;;;2.70;1.00;;;;;;5066458;28;20623;-50
2020/12/11 00:50:54;;;;;;;40.60;22.17;;;2.70;1.00;;;;;;5067890;28;20196;-52
2020/12/11 00:53:20;;;;;;;38.40;21.30;;;2.80;1.00;;;;;;5067680;28;20187;-53
2020/12/11 00:55:45;;;;;;;38.83;20.43;;;2.70;1.00;;;;;;5064963;28;20535;-51
2020/12/11 00:58:11;;;;;;;45.27;21.97;;;2.80;1.00;;;;;;5059382;28;20447;-52
2020/12/11 01:00:37;;;;;;;42.70;21.40;;;2.80;1.00;;;;;;5057262;28;20226;-56
2020/12/11 01:03:03;;;;;;;40.43;21.47;;;2.80;1.00;;;;;;5054670;28;20228;-54
2020/12/11 01:05:29;;;;;;;41.17;21.13;;;2.80;1.00;;;;;;5050638;28;20415;-52
2020/12/11 01:07:55;;;;;;;40.83;20.40;;;2.80;1.00;;;;;;5067295;28;20188;-54
2020/12/11 01:10:20;;;;;;;41.80;20.97;;;2.80;1.00;;;;;;5067953;28;20230;-56
2020/12/11 01:12:46;;;;;;;41.20;20.60;;;2.80;1.00;;;;;;5065890;28;20279;-53
2020/12/11 01:15:11;;;;;;;35.67;20.17;;;2.90;1.00;;;;;;5061651;28;20531;-53
2020/12/11 01:17:37;;;;;;;45.90;21.57;;;2.90;1.00;;;;;;5069524;28;20187;-54
2020/12/11 01:20:04;;;;;;;43.47;21.10;;;2.90;1.00;;;;;;5068206;28;20689;-53
2020/12/11 01:22:31;;;;;;;39.40;20.48;;;2.90;1.00;;;;;;5068938;28;20198;-53
2020/12/11 01:24:57;;;;;;;40.85;21.42;;;2.90;1.00;;;;;;5069275;28;20193;-55
2020/12/11 01:27:23;;;;;;;43.73;21.60;;;2.90;1.00;;;;;;5065898;28;20190;-54
2020/12/11 01:29:49;;;;;;;40.80;21.50;;;2.90;1.00;;;;;;5067674;28;20452;-52
2020/12/11 01:32:14;;;;;;;42.77;20.60;;;2.90;1.00;;;;;;5067940;28;21047;-51
2020/12/11 01:34:40;;;;;;;43.77;21.10;;;2.90;1.00;;;;;;5068647;28;20442;-55
2020/12/11 01:37:06;;;;;;;37.63;21.30;;;2.80;1.00;;;;;;5068136;28;20189;-54
2020/12/11 01:39:32;;;;;;;40.22;20.00;;;2.80;1.00;;;;;;5067553;28;21102;-53
2020/12/11 01:41:59;;;;;;;41.35;22.02;;;2.80;1.00;;;;;;5078243;28;20229;-49
2020/12/11 01:44:26;;;;;;;40.17;21.67;;;2.70;1.00;;;;;;5056766;28;20192;-53
2020/12/11 01:46:57;;;;;;;40.65;22.33;;;2.70;1.00;;;;;;5069125;28;20179;-51
2020/12/11 01:49:23;;;;;;;44.00;23.17;;;2.70;1.00;;;;;;5067581;28;20187;-52
2020/12/11 01:51:50;;;;;;;38.53;20.73;;;2.70;1.00;;;;;;5069562;28;20240;-54
2020/12/11 01:54:16;;;;;;;40.13;21.10;;;2.70;1.00;;;;;;5066481;28;20219;-54
2020/12/11 01:56:55;;;;;;;43.47;22.25;;;2.70;1.00;;;;;;5068485;28;20194;-55
2020/12/11 01:59:29;;;;;;;40.65;21.77;;;2.70;1.00;;;;;;5068221;28;20179;-53
2020/12/11 02:01:58;;;;;;;36.15;20.48;;;2.70;1.00;;;;;;5059988;28;20761;-52
2020/12/11 02:04:25;;;;;;;41.05;21.60;;;2.80;1.00;;;;;;5069578;28;20192;-53
2020/12/11 02:06:51;;;;;;;44.42;20.88;;;2.80;1.00;;;;;;5067027;28;20188;-54
2020/12/11 02:09:22;;;;;;;38.08;20.15;;;2.70;1.00;;;;;;5068500;28;20246;-56
2020/12/11 02:11:52;;;;;;;40.47;20.45;;;2.70;1.00;;;;;;5068211;28;20311;-56
2020/12/11 02:14:17;;;;;;;39.85;20.15;;;2.70;1.00;;;;;;5066829;28;20263;-51
2020/12/11 02:16:44;;;;;;;40.30;21.07;;;2.70;1.00;;;;;;5069331;28;20275;-53
2020/12/11 02:19:11;;;;;;;40.33;20.45;;;2.70;1.00;;;;;;5064537;28;20180;-52
2020/12/11 02:21:36;;;;;;;33.75;19.30;;;2.70;1.00;;;;;;5069305;28;20848;-50
2020/12/11 02:24:02;;;;;;;38.63;21.37;;;2.80;1.00;;;;;;5067418;28;20191;-53
2020/12/11 02:26:27;;;;;;;42.00;20.40;;;2.70;1.00;;;;;;5069137;28;20184;-54
2020/12/11 02:28:53;;;;;;;36.27;20.43;;;2.80;1.00;;;;;;5067861;28;20195;-55
2020/12/11 02:31:19;;;;;;;35.97;19.70;;;2.80;1.00;;;;;;5067516;28;20212;-54
2020/12/11 02:33:45;;;;;;;33.57;18.77;;;2.80;1.00;;;;;;5053563;28;20712;-55
2020/12/11 02:36:10;;;;;;;38.73;20.63;;;2.80;1.00;;;;;;5067645;28;20638;-55
2020/12/11 02:38:36;;;;;;;34.57;18.47;;;2.80;1.00;;;;;;5067976;28;20274;-53
2020/12/11 02:41:02;;;;;;;35.33;19.73;;;2.80;1.00;;;;;;5063897;28;20289;-53
2020/12/11 02:43:29;;;;;;;45.28;21.05;;;2.80;1.00;;;;;;5057471;28;20196;-55
2020/12/11 02:45:55;;;;;;;34.70;19.38;;;2.80;1.00;;;;;;5053551;28;20280;-55
2020/12/11 02:48:21;;;;;;;42.25;20.58;;;2.80;1.00;;;;;;5070216;28;20189;-53
2020/12/11 02:50:47;;;;;;;36.47;18.73;;;2.90;1.00;;;;;;5072398;28;20291;-52
2020/12/11 02:53:13;;;;;;;35.78;19.15;;;2.90;1.00;;;;;;5071488;28;20191;-55
2020/12/11 02:55:39;;;;;;;34.80;19.93;;;3.00;1.00;;;;;;5062061;28;20185;-53
2020/12/11 02:58:04;;;;;;;40.23;20.00;;;2.90;1.00;;;;;;5068232;28;20510;-55
2020/12/11 03:00:30;;;;;;;38.93;19.50;;;2.90;1.00;;;;;;5087121;28;20183;-54
2020/12/11 03:02:56;;;;;;;34.37;19.03;;;2.90;1.00;;;;;;5077791;28;20545;-52
2020/12/11 03:05:22;;;;;;;41.33;20.40;;;2.90;1.00;;;;;;5060643;28;20530;-51
2020/12/11 03:07:47;;;;;;;36.00;19.27;;;2.90;1.00;;;;;;5069034;28;20185;-52
2020/12/11 03:10:13;;;;;;;37.90;19.17;;;2.90;1.00;;;;;;5083564;28;20222;-55
2020/12/11 03:12:38;;;;;;;35.77;19.50;;;2.90;1.00;;;;;;5053722;28;20195;-51
2020/12/11 03:15:04;;;;;;;34.13;17.27;;;3.00;1.00;;;;;;5060645;28;20194;-54
2020/12/11 03:17:30;;;;;;;32.70;18.23;;;3.00;1.00;;;;;;5069288;28;20272;-57
2020/12/11 03:19:56;;;;;;;38.70;19.77;;;3.00;1.00;;;;;;5071646;28;20188;-55
2020/12/11 03:22:21;;;;;;;36.63;20.17;;;3.00;1.00;;;;;;5065973;28;20193;-54
2020/12/11 03:24:47;;;;;;;33.40;19.60;;;3.10;1.00;;;;;;5063059;28;20181;-53
2020/12/11 03:27:13;;;;;;;37.47;19.77;;;3.10;1.00;;;;;;5065476;28;20182;-52
2020/12/11 03:29:38;;;;;;;37.77;19.90;;;3.00;1.00;;;;;;5067227;28;20212;-53
2020/12/11 03:32:04;;;;;;;38.07;20.00;;;3.00;1.00;;;;;;5068713;28;20207;-54
2020/12/11 03:34:30;;;;;;;37.65;18.52;;;3.00;1.00;;;;;;5065325;28;20189;-54
2020/12/11 03:36:55;;;;;;;35.23;18.87;;;3.10;1.00;;;;;;5060417;28;20644;-54
2020/12/11 03:39:21;;;;;;;35.73;19.40;;;3.20;1.00;;;;;;5063594;28;20182;-56
2020/12/11 03:41:51;;;;;;;32.40;17.80;;;3.20;1.00;;;;;;5068695;28;20706;-52
2020/12/11 03:44:17;;;;;;;38.67;20.17;;;3.20;1.00;;;;;;5064918;28;20230;-52
2020/12/11 03:46:42;;;;;;;35.17;18.93;;;3.20;1.00;;;;;;5066553;28;20208;-53
2020/12/11 03:49:08;;;;;;;35.53;20.10;;;3.30;1.00;;;;;;5057551;28;20440;-52
2020/12/11 03:51:34;;;;;;;37.73;19.20;;;3.30;1.00;;;;;;5059443;28;20208;-50
2020/12/11 03:53:59;;;;;;;33.43;18.93;;;3.30;1.00;;;;;;5065079;28;20183;-53
2020/12/11 03:56:25;;;;;;;36.93;19.67;;;3.30;1.00;;;;;;5068788;28;20250;-54
2020/12/11 03:58:51;;;;;;;34.00;18.37;;;3.30;1.00;;;;;;5060608;28;20255;-53
2020/12/11 04:01:16;;;;;;;35.70;18.93;;;3.40;1.00;;;;;;5067395;28;20192;-55
2020/12/11 04:03:42;;;;;;;36.97;18.90;;;3.50;1.00;;;;;;5053124;28;20217;-54
2020/12/11 04:06:09;;;;;;;39.05;20.95;;;3.50;1.00;;;;;;5067239;28;20452;-54
2020/12/11 04:08:36;;;;;;;37.20;20.33;;;3.50;1.00;;;;;;5060643;28;20199;-53
2020/12/11 04:11:08;;;;;;;31.08;19.50;;;3.50;1.00;;;;;;5059782;28;20541;-52
2020/12/11 04:13:34;;;;;;;34.53;18.83;;;3.50;1.00;;;;;;5059602;28;20793;-54
2020/12/11 04:16:00;;;;;;;31.13;18.65;;;3.50;1.00;;;;;;5068538;28;20227;-52
2020/12/11 04:18:26;;;;;;;35.97;19.23;;;3.60;1.00;;;;;;5063588;28;20262;-54
2020/12/11 04:20:52;;;;;;;36.07;18.87;;;3.50;1.00;;;;;;5065205;28;20454;-56
2020/12/11 04:23:18;;;;;;;35.20;20.17;;;3.60;1.00;;;;;;5069628;28;20442;-54
2020/12/11 04:25:43;;;;;;;32.80;18.90;;;3.60;1.00;;;;;;5068224;28;20635;-56
2020/12/11 04:28:09;;;;;;;40.00;19.80;;;3.50;1.00;;;;;;5067724;28;20185;-55
2020/12/11 04:30:35;;;;;;;39.60;20.10;;;3.50;1.00;;;;;;5069335;28;20204;-53
2020/12/11 04:33:01;;;;;;;33.37;18.73;;;3.50;1.00;;;;;;5063822;28;20981;-53
2020/12/11 04:35:26;;;;;;;38.30;19.30;;;3.50;1.00;;;;;;5068222;28;20211;-55
2020/12/11 04:37:52;;;;;;;41.33;21.97;;;3.40;1.00;;;;;;5064156;28;20186;-54
2020/12/11 04:40:18;;;;;;;43.90;26.50;;;3.40;1.00;;;;;;5047792;28;603826;-53
2020/12/11 04:42:46;;;;;;;44.35;26.30;;;3.40;1.00;;;;;;5069832;28;20193;-53
2020/12/11 04:45:15;;;;;;;57.67;31.25;;;3.50;1.00;;;;;;5067565;28;20584;-54
2020/12/11 04:47:44;;;;;;;54.50;33.50;;;3.50;1.00;;;;;;5064122;28;20379;-55
2020/12/11 04:50:12;;;;;;;52.25;32.88;;;3.50;1.00;;;;;;5061398;28;20571;-54
2020/12/11 04:52:41;;;;;;;49.08;30.30;;;3.50;1.00;;;;;;5067207;28;20704;-55
2020/12/11 04:55:15;;;;;;;47.38;27.90;;;3.50;1.00;;;;;;5068992;28;20213;-54
2020/12/11 04:57:51;;;;;;;49.05;26.10;;;3.50;1.00;;;;;;5064525;28;20243;-52
2020/12/11 05:00:19;;;;;;;44.35;25.15;;;3.60;1.00;;;;;;5070517;28;20231;-53
2020/12/11 05:02:46;;;;;;;37.60;23.17;;;3.60;1.00;;;;;;5062452;28;20529;-54
2020/12/11 05:05:13;;;;;;;45.33;23.00;;;3.60;1.00;;;;;;5059233;28;20181;-53
2020/12/11 05:07:39;;;;;;;39.75;22.55;;;3.70;1.00;;;;;;5046159;28;20182;-54
2020/12/11 05:10:07;;;;;;;49.60;25.08;;;3.70;1.00;;;;;;5048128;28;20275;-53
2020/12/11 05:12:33;;;;;;;43.92;22.80;;;3.70;1.00;;;;;;5050855;28;20182;-54
2020/12/11 05:15:09;;;;;;;44.08;22.80;;;3.70;1.00;;;;;;5048965;28;20185;-52
2020/12/11 05:17:40;;;;;;;54.67;24.42;;;3.80;1.00;;;;;;5072284;28;20259;-53
2020/12/11 05:20:07;;;;;;;44.80;23.55;;;3.80;1.00;;;;;;5046859;28;20197;-51
2020/12/11 05:22:38;;;;;;;46.42;23.67;;;3.80;1.00;;;;;;5045259;28;20212;-53
2020/12/11 05:25:15;;;;;;;46.70;22.90;;;3.80;1.00;;;;;;5060866;28;20208;-53
2020/12/11 05:27:42;;;;;;;43.13;23.08;;;3.80;1.00;;;;;;5051710;28;20200;-52
2020/12/11 05:30:07;;;;;;;43.35;24.48;;;3.80;1.00;;;;;;5058683;28;20220;-54
2020/12/11 05:32:46;;;;;;;45.37;23.90;;;3.80;1.00;;;;;;5052482;28;20186;-54
2020/12/11 05:35:21;;;;;;;46.08;23.55;;;3.80;1.00;;;;;;5055309;28;20180;-52
2020/12/11 05:37:47;;;;;;;47.92;25.35;;;3.80;1.00;;;;;;5049573;28;20242;-52
2020/12/11 05:40:21;;;;;;;43.08;23.98;;;3.70;1.00;;;;;;5055115;28;20229;-54
2020/12/11 05:43:14;;;;;;;45.50;23.33;;;3.70;1.00;;;;;;5061411;28;20219;-51
2020/12/11 05:46:00;;;;;;;43.90;23.98;;;3.70;1.00;;;;;;5064914;28;20199;-53
2020/12/11 05:48:37;;;;;;;40.60;22.60;;;3.70;1.00;;;;;;5069282;28;20209;-52
2020/12/11 05:51:12;;;;;;;42.97;24.13;;;3.70;1.00;;;;;;5056616;28;20287;-54
2020/12/11 05:53:38;;;;;;;41.92;24.40;;;3.70;1.00;;;;;;5049410;28;20211;-51
2020/12/11 05:56:05;;;;;;;50.50;24.37;;;3.70;1.00;;;;;;5051952;28;20550;-51
2020/12/11 05:58:32;;;;;;;52.55;24.70;;;3.70;1.00;;;;;;5060020;28;20635;-51
2020/12/11 06:00:59;;;;;;;47.58;24.92;;;3.70;1.00;;;;;;5062040;28;20673;-52
2020/12/11 06:03:25;;;;;;;49.83;26.23;;;3.60;1.00;;;;;;5052698;28;20189;-52
2020/12/11 06:05:54;;;;;;;46.88;25.00;;;3.50;1.00;;;;;;5055550;28;20219;-51
2020/12/11 06:08:21;;;;;;;47.80;24.88;;;3.50;1.00;;;;;;5068121;28;20185;-53
2020/12/11 06:10:50;;;;;;;52.25;26.02;;;3.50;1.00;;;;;;5067788;28;20298;-50
2020/12/11 06:13:41;;;;;;;67.10;42.22;;;3.40;1.00;;;;;;5074564;28;20227;-55
2020/12/11 06:16:10;;;;;;;59.55;32.25;;;3.30;1.00;;;;;;5068141;28;20217;-53
2020/12/11 06:18:38;;;;;;;59.45;35.88;;;3.20;2.10;;;;;;5066704;28;20279;-55
2020/12/11 06:21:05;;;;;;;54.97;31.27;;;3.20;5.90;;;;;;5048745;28;20216;-52
2020/12/11 06:23:31;;;;;;;56.15;30.13;;;3.10;10.80;;;;;;5059342;28;20212;-54
2020/12/11 06:26:03;;;;;;;58.72;29.70;;;3.00;15.20;;;;;;5062274;28;20214;-53
2020/12/11 06:28:43;;;;;;;54.85;27.20;;;3.00;19.10;;;;;;5055934;28;20192;-56
2020/12/11 06:31:16;;;;;;;63.67;34.25;;;2.90;24.60;;;;;;5062513;28;20785;-54
2020/12/11 06:33:51;;;;;;;53.60;26.27;;;2.80;29.10;;;;;;5048514;28;20189;-54
2020/12/11 06:36:17;;;;;;;54.88;29.77;;;2.80;33.90;;;;;;5067579;28;20182;-54
2020/12/11 06:38:58;;;;;;;53.20;27.92;;;2.80;37.90;;;;;;5068366;28;20744;-54
2020/12/11 06:41:32;;;;;;;58.20;29.33;;;2.70;43.20;;;;;;5059045;28;20244;-54
2020/12/11 06:44:10;;;;;;;53.30;28.10;;;2.70;49.20;;;;;;5062506;28;20715;-52
2020/12/11 06:46:36;;;;;;;50.28;26.95;;;2.70;53.40;;;;;;5056194;28;20310;-54
2020/12/11 06:49:17;;;;;;;65.25;31.40;;;2.70;56.40;;;;;;5065346;28;20191;-55
2020/12/11 06:51:46;;;;;;;57.72;27.85;;;2.60;59.40;;;;;;5058474;28;20257;-51
2020/12/11 06:54:20;;;;;;;53.20;27.63;;;2.60;64.20;;;;;;5054114;28;20197;-55
2020/12/11 06:56:51;;;;;;;58.42;27.83;;;2.60;66.90;;;;;;5049893;28;20668;-51
2020/12/11 06:59:25;;;;;;;56.85;29.95;;;2.60;67.50;;;;;;5062946;28;20181;-51
2020/12/11 07:01:57;;;;;;;64.53;29.67;;;2.60;69.70;;;;;;5055416;28;20188;-52
2020/12/11 07:04:23;;;;;;;58.90;27.05;;;2.60;72.70;;;;;;5067056;28;20601;-56
2020/12/11 07:06:50;;;;;;;57.67;29.65;;;2.60;71.10;;;;;;5065092;28;20172;-53
2020/12/11 07:09:16;;;;;;;61.53;27.67;;;2.60;69.10;;;;;;5060569;28;20204;-54
2020/12/11 07:11:43;;;;;;;56.72;27.17;;;2.60;68.90;;;;;;5067963;28;20568;-55
2020/12/11 07:14:09;;;;;;;56.22;27.02;;;2.60;69.60;;;;;;5066660;28;20940;-52
2020/12/11 07:16:39;;;;;;;65.80;29.90;;;2.70;67.40;;;;;;5070232;28;20267;-50
2020/12/11 07:19:05;;;;;;;62.15;29.98;;;2.70;66.40;;;;;;5073384;28;20487;-54
2020/12/11 07:21:33;;;;;;;58.88;30.65;;;2.70;66.10;;;;;;5072890;28;20509;-55
2020/12/11 07:24:03;;;;;;;57.38;28.80;;;2.70;67.50;;;;;;5063052;28;20219;-53
2020/12/11 07:26:29;;;;;;;54.92;26.40;;;2.70;67.10;;;;;;5071073;28;20608;-51
2020/12/11 07:29:13;;;;;;;57.07;25.80;;;2.80;67.50;;;;;;5061776;28;20273;-56
2020/12/11 07:31:41;;;;;;;57.05;26.92;;;2.80;65.50;;;;;;5067566;28;20288;-53
2020/12/11 07:34:21;;;;;;;52.20;25.60;;;2.90;62.10;;;;;;5053057;28;20891;-55
2020/12/11 07:36:54;;;;;;;51.65;25.80;;;3.00;60.10;;;;;;5066557;28;20183;-51
2020/12/11 07:39:21;;;;;;;54.17;24.83;;;3.00;60.40;;;;;;5066543;28;20192;-54
2020/12/11 07:41:48;;;;;;;48.05;25.08;;;3.10;58.60;;;;;;5060023;28;20240;-54
2020/12/11 07:44:26;;;;;;;49.25;26.55;;;3.10;56.00;;;;;;5065105;28;20196;-52
2020/12/11 07:46:53;;;;;;;50.88;27.10;;;3.10;54.80;;;;;;5070931;28;20211;-52
2020/12/11 07:49:19;;;;;;;49.53;25.00;;;3.10;54.80;;;;;;5061445;28;20184;-55
2020/12/11 07:51:45;;;;;;;49.77;26.10;;;3.20;53.40;;;;;;5071125;28;20216;-55
2020/12/11 07:54:11;;;;;;;46.35;25.17;;;3.30;50.70;;;;;;5063304;28;20261;-55
2020/12/11 07:56:37;;;;;;;53.13;25.38;;;3.30;48.30;;;;;;5069049;28;20656;-58
2020/12/11 07:59:13;;;;;;;48.90;23.97;;;3.40;46.20;;;;;;5070735;28;20228;-57
2020/12/11 08:01:40;;;;;;;44.35;23.40;;;3.40;44.70;;;;;;5059782;28;20612;-56
2020/12/11 08:04:06;;;;;;;48.40;24.83;;;3.60;41.70;;;;;;5068704;28;20217;-55
2020/12/11 08:06:32;;;;;;;49.05;25.70;;;3.60;38.00;;;;;;5067095;28;20185;-57
2020/12/11 08:09:09;;;;;;;42.45;24.08;;;3.70;35.10;;;;;;5070509;28;20214;-56
2020/12/11 08:11:35;;;;;;;43.40;24.25;;;3.80;28.30;;;;;;5070096;28;20216;-52
2020/12/11 08:14:02;;;;;;;47.37;25.67;;;3.80;26.70;;;;;;5070035;28;20181;-57
2020/12/11 08:16:29;;;;;;;43.83;24.70;;;3.90;24.00;;;;;;5064271;28;20270;-54
2020/12/11 08:18:56;;;;;;;45.60;23.40;;;4.00;20.30;;;;;;5068060;28;20201;-56
2020/12/11 08:21:29;;;;;;;47.15;24.10;;;4.00;19.30;;;;;;5066092;28;20200;-58
2020/12/11 08:23:55;;;;;;;42.83;24.20;;;4.10;17.90;;;;;;5069906;28;20189;-56
2020/12/11 08:26:21;;;;;;;44.50;24.67;;;4.10;14.60;;;;;;5067672;28;20674;-57
2020/12/11 08:28:49;;;;;;;43.88;24.67;;;4.20;13.20;;;;;;5069886;28;20414;-58
2020/12/11 08:31:23;;;;;;;47.58;24.92;;;4.20;13.20;;;;;;5066101;28;20197;-57
2020/12/11 08:33:59;;;;;;;45.30;23.23;;;4.20;13.30;;;;;;5070183;28;20618;-58
2020/12/11 08:36:26;;;;;;;49.03;24.52;;;4.30;13.10;;;;;;5069839;28;20673;-52
2020/12/11 08:39:04;;;;;;;47.25;24.83;;;4.30;11.70;;;;;;5069643;28;20192;-49
2020/12/11 08:41:31;;;;;;;49.13;24.65;;;4.40;9.50;;;;;;5063341;28;20235;-50
2020/12/11 08:43:57;;;;;;;41.80;23.10;;;4.40;11.10;;;;;;5067633;28;20217;-55
2020/12/11 08:46:33;;;;;;;49.55;25.50;;;4.50;10.50;;;;;;5064619;28;20189;-53
2020/12/11 08:51:30;;;;;;;43.15;23.50;;;4.70;1.50;;;;;;5061203;28;20208;-51
2020/12/11 08:53:57;;;;;;;45.27;23.37;;;4.70;1.00;;;;;;5069418;28;20181;-51
2020/12/11 08:56:23;;;;;;;37.40;20.77;;;4.70;1.00;;;;;;5069492;28;20204;-52
2020/12/11 08:58:49;;;;;;;42.03;23.30;;;4.70;1.00;;;;;;5069128;28;20216;-52
2020/12/11 09:01:15;;;;;;;34.20;20.37;;;4.80;1.00;;;;;;5069258;28;20475;-53
2020/12/11 09:03:40;;;;;;;41.70;23.00;;;4.70;1.00;;;;;;5068979;28;20455;-54
2020/12/11 09:06:06;;;;;;;40.20;23.00;;;4.80;1.00;;;;;;5068564;28;20430;-53
2020/12/11 09:08:32;;;;;;;40.20;24.00;;;4.80;1.00;;;;;;5069066;28;20181;-54
2020/12/11 09:10:57;;;;;;;43.90;23.57;;;4.80;1.00;;;;;;5068576;28;20630;-52
2020/12/11 09:13:23;;;;;;;38.87;22.27;;;4.70;1.00;;;;;;5068844;28;20179;-53
2020/12/11 09:15:49;;;;;;;40.07;22.73;;;4.70;1.00;;;;;;5060638;28;20420;-57
2020/12/11 09:18:14;;;;;;;45.07;23.20;;;4.80;1.00;;;;;;5067578;28;20247;-56
2020/12/11 09:20:40;;;;;;;42.13;22.30;;;4.80;1.00;;;;;;5067570;28;20258;-51
2020/12/11 09:23:06;;;;;;;34.97;20.20;;;4.80;1.00;;;;;;5067474;28;20212;-55
2020/12/11 09:25:31;;;;;;;41.07;22.13;;;4.70;1.00;;;;;;5069103;28;20189;-54
2020/12/11 09:27:57;;;;;;;41.73;23.57;;;4.70;1.00;;;;;;5068584;28;20247;-52
2020/12/11 09:30:29;;;;;;;41.40;23.80;;;4.70;1.00;;;;;;5068689;28;20298;-52
2020/12/11 09:33:07;;;;;;;38.78;22.40;;;4.80;1.00;;;;;;5068416;28;20208;-58
2020/12/11 09:35:39;;;;;;;39.00;22.88;;;4.80;1.00;;;;;;5068312;28;20196;-55
2020/12/11 09:38:04;;;;;;;34.45;22.00;;;4.80;1.00;;;;;;5080195;28;20185;-57
2020/12/11 09:40:40;;;;;;;37.77;20.93;;;4.90;1.00;;;;;;5068826;28;21020;-54
2020/12/11 09:45:47;;;;;;;38.47;22.27;;;4.90;1.00;;;;;;5069115;28;20218;-59
2020/12/11 09:48:32;;;;;;;38.38;22.20;;;5.00;1.00;;;;;;5074476;28;20174;-54
2020/12/11 09:51:10;;;;;;;36.60;21.75;;;5.00;1.00;;;;;;5069491;28;20625;-55
2020/12/11 09:56:22;;;;;;;35.92;21.95;;;5.20;1.00;;;;;;5064922;28;20636;-57
2020/12/11 09:58:48;;;;;;;36.63;20.23;;;5.20;1.00;;;;;;5066897;28;20493;-57
2020/12/11 10:01:18;;;;;;;35.97;20.35;;;5.20;1.00;;;;;;5067818;28;20211;-56
2020/12/11 10:03:44;;;;;;;33.15;21.33;;;5.20;1.00;;;;;;5068193;28;20218;-49
2020/12/11 10:06:09;;;;;;;40.47;22.53;;;5.30;1.00;;;;;;5067755;28;20639;-51
2020/12/11 10:08:35;;;;;;;36.03;20.00;;;5.30;1.00;;;;;;5066330;28;20873;-56
2020/12/11 10:11:01;;;;;;;32.20;20.47;;;5.30;1.00;;;;;;5066896;28;20338;-55
2020/12/11 10:13:27;;;;;;;37.03;19.63;;;5.30;1.00;;;;;;5067702;28;20177;-55
2020/12/11 10:15:53;;;;;;;35.90;21.15;;;5.30;1.00;;;;;;5067295;28;20177;-50
2020/12/11 10:18:18;;;;;;;37.50;21.07;;;5.30;1.00;;;;;;5052458;28;20177;-52
2020/12/11 10:20:44;;;;;;;34.13;21.30;;;5.30;1.00;;;;;;5062782;28;20216;-55
2020/12/11 10:23:10;;;;;;;34.50;21.57;;;5.20;1.00;;;;;;5067990;28;20177;-57
2020/12/11 10:25:38;;;;;;;34.40;21.33;;;5.20;1.00;;;;;;5067341;28;20184;-51
2020/12/11 10:28:04;;;;;;;35.03;20.48;;;5.30;1.00;;;;;;5066336;28;20176;-52
2020/12/11 10:30:30;;;;;;;34.37;19.87;;;5.20;1.00;;;;;;5049673;28;22661;-55
2020/12/11 10:32:56;;;;;;;36.40;20.47;;;5.20;1.00;;;;;;5066390;28;20177;-55
2020/12/11 10:35:21;;;;;;;30.05;19.23;;;5.30;1.00;;;;;;5067927;28;20531;-53
2020/12/11 10:37:47;;;;;;;35.90;19.63;;;5.30;1.00;;;;;;5067093;28;20181;-54
2020/12/11 10:40:13;;;;;;;31.53;20.27;;;5.30;1.00;;;;;;5062155;28;20275;-54
2020/12/11 10:42:38;;;;;;;33.23;19.67;;;5.30;1.00;;;;;;5065814;28;20260;-55
2020/12/11 10:45:04;;;;;;;31.70;20.17;;;5.30;1.00;;;;;;5066960;28;20181;-54
2020/12/11 10:47:30;;;;;;;35.87;20.20;;;5.30;1.00;;;;;;5069974;28;20188;-55
2020/12/11 10:49:55;;;;;;;27.10;17.40;;;5.40;1.00;;;;;;5066627;28;20719;-56
2020/12/11 10:52:21;;;;;;;33.27;19.30;;;5.40;1.00;;;;;;5073211;28;20336;-51
2020/12/11 10:54:48;;;;;;;35.40;18.97;;;5.40;1.00;;;;;;5067573;28;20177;-56
2020/12/11 10:57:14;;;;;;;31.52;20.17;;;5.40;1.00;;;;;;5066390;28;20170;-56
2020/12/11 10:59:40;;;;;;;31.77;19.42;;;5.40;1.00;;;;;;5047405;28;20209;-55
2020/12/11 11:02:06;;;;;;;31.77;20.07;;;5.50;1.00;;;;;;5051144;28;20230;-56
2020/12/11 11:04:31;;;;;;;34.47;19.43;;;5.50;1.00;;;;;;5060779;28;20285;-55
2020/12/11 11:07:04;;;;;;;30.33;18.83;;;5.40;1.00;;;;;;5046871;28;20443;-55
2020/12/11 11:09:41;;;;;;;28.35;18.58;;;5.40;1.00;;;;;;5056129;28;20192;-52
2020/12/11 11:20:21;;;;;;;36.05;19.25;;;5.90;1.00;;;;;;5069451;28;20852;-53
2020/12/11 11:28:01;;;;;;;32.10;18.50;;;6.00;1.00;;;;;;5070345;28;20280;-53
2020/12/11 11:30:28;;;;;;;30.58;18.75;;;6.10;1.00;;;;;;5070739;28;20284;-53
2020/12/11 11:32:57;;;;;;;31.60;19.23;;;6.20;1.00;;;;;;5068495;28;20170;-54
2020/12/11 11:35:28;;;;;;;33.72;20.40;;;6.20;1.00;;;;;;5051033;28;20166;-53
2020/12/11 11:37:53;;;;;;;33.40;19.88;;;6.30;1.00;;;;;;5064481;28;20234;-56
2020/12/11 11:40:19;;;;;;;34.37;20.10;;;6.40;1.00;;;;;;5070022;28;20305;-55
2020/12/11 11:42:45;;;;;;;34.83;20.60;;;6.50;1.00;;;;;;5070858;28;20511;-55
2020/12/11 11:45:23;;;;;;;31.80;20.70;;;6.60;1.00;;;;;;5070292;28;20218;-52
2020/12/11 11:47:53;;;;;;;30.42;19.83;;;6.70;1.00;;;;;;5073324;28;20287;-55
2020/12/11 11:52:57;;;;;;;32.17;20.83;;;7.00;1.00;;;;;;5078124;28;20178;-56
2020/12/11 11:55:23;;;;;;;31.27;20.58;;;7.10;1.00;;;;;;5068571;28;20178;-53
2020/12/11 11:57:48;;;;;;;30.57;20.00;;;7.40;1.00;;;;;;5070766;28;20302;-52
2020/12/11 12:00:14;;;;;;;32.93;21.00;;;7.60;1.00;;;;;;5069392;28;20195;-55
2020/12/11 12:02:39;;;;;;;36.47;20.93;;;7.80;99.90;;;;;;5065865;28;20195;-53
2020/12/11 12:05:09;;;;;;;33.70;21.13;;;7.90;1.00;;;;;;5061314;28;20298;-53
2020/12/11 12:07:35;;;;;;;34.87;21.87;;;8.00;1.00;;;;;;5064735;28;20180;-54
2020/12/11 12:10:02;;;;;;;32.53;22.43;;;8.10;1.00;;;;;;5050470;28;20423;-54
2020/12/11 12:12:27;;;;;;;31.60;21.40;;;8.00;99.90;;;;;;5067249;28;20435;-51
2020/12/11 12:14:53;;;;;;;35.30;22.87;;;7.90;1.00;;;;;;5068618;28;20429;-55
2020/12/11 12:17:22;;;;;;;34.50;22.23;;;7.90;1.00;;;;;;5054211;28;20200;-52
2020/12/11 12:19:50;;;;;;;31.83;22.17;;;7.80;1.00;;;;;;5059287;28;20504;-55
2020/12/11 12:29:58;;;;;;;34.08;20.52;;;7.50;99.90;;;;;;5070170;28;20215;-57
2020/12/11 12:32:26;;;;;;;31.23;20.93;;;7.40;99.90;;;;;;5068959;28;20751;-50
2020/12/11 12:37:50;;;;;;;33.05;19.58;;;7.30;99.90;;;;;;5014399;28;20201;-57
2020/12/11 12:43:04;;;;;;;32.00;20.00;;;6.90;99.90;;;;;;5062105;28;20282;-57
2020/12/11 12:45:30;;;;;;;30.67;19.30;;;6.80;99.90;;;;;;5063648;28;20202;-54
2020/12/11 12:47:56;;;;;;;31.07;19.33;;;6.60;99.90;;;;;;5068771;28;20177;-53
2020/12/11 12:50:21;;;;;;;31.73;19.75;;;6.60;1.00;;;;;;5068088;28;20189;-53
2020/12/11 12:52:48;;;;;;;32.20;20.60;;;6.50;1.00;;;;;;5065271;28;20179;-53
2020/12/11 12:55:17;;;;;;;29.38;19.33;;;6.30;1.00;;;;;;5067258;28;20258;-54
2020/12/11 12:57:53;;;;;;;32.78;20.52;;;6.30;1.00;;;;;;5067064;28;20173;-56
2020/12/11 13:05:29;;;;;;;33.25;20.08;;;6.00;1.00;;;;;;5065521;28;20756;-51
2020/12/11 13:07:54;;;;;;;38.87;21.43;;;6.00;1.00;;;;;;5065960;28;20185;-54
2020/12/11 13:10:20;;;;;;;31.30;20.77;;;6.00;1.00;;;;;;5067888;28;20888;-54
2020/12/11 13:12:47;;;;;;;32.37;19.70;;;6.10;1.00;;;;;;5065632;28;20551;-56
2020/12/11 13:15:14;;;;;;;32.58;19.50;;;6.30;1.00;;;;;;5068688;28;20256;-57
2020/12/11 13:17:43;;;;;;;30.60;20.65;;;6.30;1.00;;;;;;5067204;28;20231;-51
2020/12/11 13:20:12;;;;;;;31.25;19.50;;;6.30;1.00;;;;;;5067434;28;20265;-54
2020/12/11 13:23:05;;;;;;;33.10;20.83;;;6.30;1.00;;;;;;5068387;28;20231;-55
2020/12/11 13:25:45;;;;;;;31.17;19.23;;;6.30;1.00;;;;;;5062636;28;20209;-56
2020/12/11 13:28:11;;;;;;;34.30;21.85;;;6.30;1.00;;;;;;5069772;28;20174;-56
2020/12/11 13:30:36;;;;;;;34.90;21.70;;;6.20;1.00;;;;;;5048105;28;20260;-56
2020/12/11 13:33:02;;;;;;;32.30;21.57;;;6.20;1.00;;;;;;5048320;28;20216;-51